Time;durP1;ratioP1;P1;durP2;ratioP2;P2;SDS_P1;SDS_P2;PMS_P1;PMS_P2;Temp;Humidity;BMP_temperature;BMP_pressure;BME280_temperature;BME280_humidity;BME280_pressure;Samples;Min_cycle;Max_cycle;Signal;HPM_P1;HPM_P2
2021/07/19 00:02:20;;;;;;;6.68;3.15;;;21.20;99.90;;;;;;5031743;28;20038;-85
2021/07/19 00:04:47;;;;;;;4.63;3.65;;;21.20;99.90;;;;;;5014708;28;20056;-85
2021/07/19 00:07:14;;;;;;;4.75;3.67;;;21.20;99.90;;;;;;5012442;28;20060;-84
2021/07/19 00:09:44;;;;;;;4.95;3.58;;;21.20;99.90;;;;;;5051293;28;20045;-85
2021/07/19 00:12:14;;;;;;;5.10;3.13;;;21.20;99.90;;;;;;5014627;28;20144;-85
2021/07/19 00:14:43;;;;;;;4.70;3.40;;;21.20;99.90;;;;;;5032181;28;20064;-86
2021/07/19 00:17:11;;;;;;;7.57;3.90;;;21.20;99.90;;;;;;5012312;28;20045;-85
2021/07/19 00:23:26;;;;;;;5.23;3.43;;;21.20;99.90;;;;;;5020781;28;20726;-85
2021/07/19 00:25:53;;;;;;;6.88;3.70;;;21.10;99.90;;;;;;5014163;28;20103;-85
2021/07/19 00:28:20;;;;;;;3.95;3.42;;;21.10;99.90;;;;;;5016322;28;20068;-84
2021/07/19 00:30:47;;;;;;;6.15;4.38;;;21.10;99.90;;;;;;5026840;28;20049;-84
2021/07/19 00:33:14;;;;;;;7.75;3.83;;;21.10;99.90;;;;;;5014492;28;20124;-84
2021/07/19 00:35:41;;;;;;;6.18;3.53;;;21.00;99.90;;;;;;5020361;28;20082;-85
2021/07/19 00:38:09;;;;;;;6.85;3.75;;;21.00;99.90;;;;;;5021289;28;20061;-85
2021/07/19 00:40:36;;;;;;;6.30;3.42;;;21.00;99.90;;;;;;5031541;28;20128;-85
2021/07/19 00:43:07;;;;;;;6.20;4.18;;;21.00;99.90;;;;;;5028736;28;20076;-84
2021/07/19 00:45:35;;;;;;;4.25;3.78;;;21.00;99.90;;;;;;5016256;28;20038;-84
2021/07/19 00:48:04;;;;;;;5.10;4.10;;;20.90;99.90;;;;;;5032015;28;20060;-85
2021/07/19 00:50:34;;;;;;;5.55;3.70;;;20.90;99.90;;;;;;5042806;28;20047;-85
2021/07/19 00:53:07;;;;;;;7.20;4.15;;;20.90;99.90;;;;;;5028356;28;20412;-85
2021/07/19 00:55:43;;;;;;;6.07;4.18;;;20.80;99.90;;;;;;5016017;28;20045;-84
2021/07/19 00:58:13;;;;;;;6.25;3.90;;;20.80;99.90;;;;;;5032239;28;20046;-85
2021/07/19 01:00:50;;;;;;;11.02;3.88;;;20.80;99.90;;;;;;5013910;28;20045;-85
2021/07/19 01:03:18;;;;;;;6.70;4.43;;;20.70;99.90;;;;;;5011394;28;20056;-85
2021/07/19 01:05:46;;;;;;;5.43;4.30;;;20.70;99.90;;;;;;5014418;28;20495;-84
2021/07/19 01:08:14;;;;;;;5.95;4.28;;;20.60;99.90;;;;;;5032276;28;20042;-84
2021/07/19 01:10:41;;;;;;;6.15;4.30;;;20.60;99.90;;;;;;5012046;28;20048;-85
2021/07/19 01:13:08;;;;;;;6.15;3.88;;;20.60;99.90;;;;;;5012200;28;20041;-85
2021/07/19 01:15:37;;;;;;;4.50;3.78;;;20.60;99.90;;;;;;5014685;28;20048;-85
2021/07/19 01:18:06;;;;;;;7.05;4.20;;;20.60;99.90;;;;;;5011875;28;20049;-85
2021/07/19 01:20:57;;;;;;;6.10;4.22;;;20.50;99.90;;;;;;5014958;28;20103;-84
2021/07/19 01:23:27;;;;;;;5.57;4.30;;;20.50;99.90;;;;;;5009340;28;20064;-85
2021/07/19 01:26:01;;;;;;;5.65;4.15;;;20.50;99.90;;;;;;5009482;28;20069;-85
2021/07/19 01:28:46;;;;;;;5.63;3.95;;;20.50;99.90;;;;;;5005921;28;20048;-84
2021/07/19 01:31:17;;;;;;;4.50;4.07;;;20.50;99.90;;;;;;4998650;28;20063;-85
2021/07/19 01:33:52;;;;;;;6.85;4.20;;;20.40;99.90;;;;;;5012373;28;20058;-85
2021/07/19 01:36:23;;;;;;;5.90;3.75;;;20.40;99.90;;;;;;5024387;28;20045;-85
2021/07/19 01:38:52;;;;;;;5.80;4.22;;;20.40;99.90;;;;;;5014068;28;20046;-85
2021/07/19 01:41:20;;;;;;;5.28;3.83;;;20.40;99.90;;;;;;5013525;28;20514;-85
2021/07/19 01:43:47;;;;;;;6.40;4.73;;;20.40;99.90;;;;;;5014472;28;20053;-85
2021/07/19 01:46:15;;;;;;;5.93;3.90;;;20.40;99.90;;;;;;5012676;28;20103;-85
2021/07/19 01:48:45;;;;;;;4.68;4.10;;;20.40;99.90;;;;;;5019057;28;20154;-85
2021/07/19 01:51:12;;;;;;;9.98;4.00;;;20.40;99.90;;;;;;5012093;28;20050;-85
2021/07/19 01:53:41;;;;;;;4.88;4.07;;;20.40;99.90;;;;;;5016327;28;20041;-85
2021/07/19 01:56:09;;;;;;;8.60;4.25;;;20.40;99.90;;;;;;5021513;28;20052;-85
2021/07/19 01:58:36;;;;;;;5.63;3.95;;;20.50;99.90;;;;;;5030570;28;20123;-85
2021/07/19 02:01:06;;;;;;;5.90;3.95;;;20.40;99.90;;;;;;5029476;28;20050;-84
2021/07/19 02:03:33;;;;;;;4.60;3.90;;;20.40;99.90;;;;;;5014687;28;20552;-85
2021/07/19 02:06:04;;;;;;;6.60;3.80;;;20.40;99.90;;;;;;5015280;28;20041;-85
2021/07/19 02:08:34;;;;;;;5.32;3.58;;;20.40;99.90;;;;;;5027737;28;20049;-85
2021/07/19 02:11:03;;;;;;;4.68;3.83;;;20.40;99.90;;;;;;5029374;28;20095;-85
2021/07/19 02:13:34;;;;;;;5.88;4.00;;;20.50;99.90;;;;;;5028025;28;20072;-85
2021/07/19 02:16:02;;;;;;;5.60;3.72;;;20.50;99.90;;;;;;5022370;28;20038;-85
2021/07/19 02:18:33;;;;;;;5.55;4.03;;;20.40;99.90;;;;;;5028714;28;20415;-85
2021/07/19 02:21:04;;;;;;;8.95;4.10;;;20.50;99.90;;;;;;5017966;28;20078;-85
2021/07/19 02:23:33;;;;;;;5.03;3.90;;;20.50;99.90;;;;;;5016916;28;20045;-85
2021/07/19 02:26:03;;;;;;;7.28;3.80;;;20.50;99.90;;;;;;5017859;28;20053;-85
2021/07/19 02:28:32;;;;;;;6.15;3.83;;;20.50;99.90;;;;;;5010335;28;21250;-85
2021/07/19 02:31:02;;;;;;;8.25;3.83;;;20.50;99.90;;;;;;5001993;28;20049;-85
2021/07/19 02:33:30;;;;;;;5.20;3.97;;;20.50;99.90;;;;;;5014710;28;20045;-85
2021/07/19 02:35:59;;;;;;;6.35;4.32;;;20.50;99.90;;;;;;5028004;28;20092;-85
2021/07/19 02:38:27;;;;;;;5.55;3.78;;;20.40;99.90;;;;;;5011981;28;20045;-85
2021/07/19 02:40:54;;;;;;;4.45;4.05;;;20.50;99.90;;;;;;5009023;28;20051;-84
2021/07/19 02:43:23;;;;;;;6.15;4.10;;;20.50;99.90;;;;;;5030038;28;20442;-84
2021/07/19 02:45:54;;;;;;;5.93;4.10;;;20.40;99.90;;;;;;5000033;28;20451;-85
2021/07/19 02:48:22;;;;;;;6.65;4.45;;;20.40;99.90;;;;;;5014973;28;20046;-85
2021/07/19 02:50:53;;;;;;;6.07;4.10;;;20.40;99.90;;;;;;5042550;28;20045;-85
2021/07/19 02:53:21;;;;;;;5.65;4.05;;;20.40;99.90;;;;;;5020602;28;20119;-85
2021/07/19 02:55:49;;;;;;;5.15;4.13;;;20.40;99.90;;;;;;5034328;28;20049;-85
2021/07/19 02:58:18;;;;;;;5.95;4.25;;;20.40;99.90;;;;;;5017984;28;20045;-84
2021/07/19 03:00:48;;;;;;;6.22;4.20;;;20.40;99.90;;;;;;5017379;28;20064;-85
2021/07/19 03:03:26;;;;;;;7.25;4.45;;;20.30;99.90;;;;;;5034508;28;20073;-85
2021/07/19 03:06:02;;;;;;;5.43;4.38;;;20.30;99.90;;;;;;5018567;28;20544;-85
2021/07/19 03:08:38;;;;;;;6.32;4.40;;;20.30;99.90;;;;;;5030316;28;20041;-84
2021/07/19 03:11:19;;;;;;;8.32;4.32;;;20.30;99.90;;;;;;5012303;28;20049;-85
2021/07/19 03:13:53;;;;;;;6.03;4.30;;;20.30;99.90;;;;;;5037749;28;20041;-85
2021/07/19 03:16:24;;;;;;;5.22;4.70;;;20.30;99.90;;;;;;5015392;28;20115;-85
2021/07/19 03:18:53;;;;;;;6.60;3.92;;;20.30;99.90;;;;;;5000262;28;20127;-85
2021/07/19 03:21:20;;;;;;;4.63;3.75;;;20.30;99.90;;;;;;5013577;28;20352;-85
2021/07/19 03:23:48;;;;;;;4.90;4.50;;;20.30;99.90;;;;;;5016537;28;20604;-85
2021/07/19 03:26:19;;;;;;;6.65;4.50;;;20.30;99.90;;;;;;5014373;28;20037;-85
2021/07/19 03:28:47;;;;;;;4.85;4.32;;;20.30;99.90;;;;;;5013314;28;20057;-85
2021/07/19 03:31:14;;;;;;;9.27;4.70;;;20.30;99.90;;;;;;5019154;28;20041;-85
2021/07/19 03:33:43;;;;;;;11.93;5.20;;;20.30;99.90;;;;;;5015076;28;20045;-85
2021/07/19 03:36:12;;;;;;;7.00;4.78;;;20.30;99.90;;;;;;5012239;28;20104;-85
2021/07/19 03:38:42;;;;;;;5.13;4.63;;;20.30;99.90;;;;;;4996392;28;20050;-85
2021/07/19 03:41:13;;;;;;;5.90;4.60;;;20.30;99.90;;;;;;5010063;28;20045;-85
2021/07/19 03:43:42;;;;;;;7.05;5.10;;;20.30;99.90;;;;;;5012340;28;20050;-85
2021/07/19 03:46:10;;;;;;;5.20;4.65;;;20.30;99.90;;;;;;5008888;28;20049;-85
2021/07/19 03:48:37;;;;;;;5.65;4.22;;;20.30;99.90;;;;;;4987009;28;20125;-85
2021/07/19 03:51:05;;;;;;;6.47;4.75;;;20.30;99.90;;;;;;4989965;28;20531;-85
2021/07/19 03:53:32;;;;;;;4.78;4.30;;;20.30;99.90;;;;;;5007501;28;20073;-85
2021/07/19 03:56:00;;;;;;;6.38;4.68;;;20.30;99.90;;;;;;4993827;28;20054;-85
2021/07/19 03:58:29;;;;;;;4.90;3.75;;;20.30;99.90;;;;;;5003849;28;20057;-85
2021/07/19 04:00:57;;;;;;;6.68;4.28;;;20.20;99.90;;;;;;4994308;28;20045;-85
2021/07/19 04:03:28;;;;;;;5.10;4.25;;;20.20;99.90;;;;;;4993928;28;20498;-85
2021/07/19 04:06:00;;;;;;;6.32;4.65;;;20.20;99.90;;;;;;5003868;28;20368;-85
2021/07/19 04:08:31;;;;;;;5.32;4.63;;;20.10;99.90;;;;;;5010323;28;20049;-85
2021/07/19 04:10:59;;;;;;;5.90;4.60;;;20.10;99.90;;;;;;5011423;28;20042;-85
2021/07/19 04:13:28;;;;;;;7.30;4.80;;;20.10;99.90;;;;;;5003100;28;20096;-84
2021/07/19 04:15:56;;;;;;;5.03;4.18;;;20.10;99.90;;;;;;5011702;28;20101;-85
2021/07/19 04:18:23;;;;;;;8.00;4.67;;;20.10;99.90;;;;;;4999599;28;20093;-85
2021/07/19 04:20:52;;;;;;;5.85;4.40;;;20.10;99.90;;;;;;4995733;28;20284;-85
2021/07/19 04:23:19;;;;;;;7.07;4.50;;;20.10;99.90;;;;;;4995352;28;20049;-85
2021/07/19 04:25:47;;;;;;;7.93;4.70;;;20.00;99.90;;;;;;5002083;28;20140;-85
2021/07/19 04:28:18;;;;;;;7.57;5.20;;;20.00;99.90;;;;;;5008035;28;20109;-85
2021/07/19 04:30:46;;;;;;;7.13;4.80;;;20.00;99.90;;;;;;4994459;28;20381;-85
2021/07/19 04:33:22;;;;;;;5.70;4.80;;;20.00;99.90;;;;;;4980888;28;20057;-85
2021/07/19 04:35:53;;;;;;;5.50;4.60;;;20.00;99.90;;;;;;5029978;28;20037;-85
2021/07/19 04:38:21;;;;;;;5.95;4.70;;;20.10;99.90;;;;;;5014814;28;20053;-85
2021/07/19 04:40:54;;;;;;;5.82;4.75;;;20.00;99.90;;;;;;5032071;28;20061;-85
2021/07/19 04:43:23;;;;;;;7.78;4.78;;;20.00;99.90;;;;;;5033065;28;20045;-85
2021/07/19 04:45:50;;;;;;;;;;;20.00;99.90;;;;;;5014262;28;20057;-85
2021/07/19 04:48:18;;;;;;;6.13;4.55;;;20.00;99.90;;;;;;5009732;28;19922;-85
2021/07/19 04:50:47;;;;;;;4.57;4.07;;;20.00;99.90;;;;;;5010835;28;20399;-85
2021/07/19 04:53:15;;;;;;;5.53;4.95;;;20.00;99.90;;;;;;5036321;28;20049;-85
2021/07/19 04:55:46;;;;;;;5.13;4.30;;;20.00;99.90;;;;;;5030519;28;20045;-85
2021/07/19 04:58:16;;;;;;;7.03;4.35;;;20.00;99.90;;;;;;5014077;28;20103;-85
2021/07/19 05:00:47;;;;;;;5.60;4.47;;;20.00;99.90;;;;;;5023016;28;20063;-84
2021/07/19 05:03:16;;;;;;;10.00;4.97;;;20.00;99.90;;;;;;5014713;28;20041;-85
2021/07/19 05:05:46;;;;;;;5.10;4.40;;;20.00;99.90;;;;;;5009861;28;20053;-84
2021/07/19 05:08:18;;;;;;;6.80;5.32;;;20.00;99.90;;;;;;5010951;28;20052;-84
2021/07/19 05:10:46;;;;;;;6.43;4.45;;;20.00;99.90;;;;;;5039608;28;20376;-85
2021/07/19 05:13:15;;;;;;;7.35;4.75;;;20.00;99.90;;;;;;5017800;28;20045;-85
2021/07/19 05:15:42;;;;;;;6.88;4.40;;;20.00;99.90;;;;;;5014215;28;20315;-85
2021/07/19 05:18:09;;;;;;;7.78;4.63;;;20.10;99.90;;;;;;5031284;28;20045;-84
2021/07/19 05:20:37;;;;;;;5.13;4.55;;;20.10;99.90;;;;;;5032711;28;20053;-85
2021/07/19 05:23:04;;;;;;;4.93;4.43;;;20.10;99.90;;;;;;5017406;28;20041;-84
2021/07/19 05:25:32;;;;;;;4.57;4.18;;;20.10;99.90;;;;;;5010762;28;20513;-85
2021/07/19 05:28:12;;;;;;;7.38;4.72;;;20.10;99.90;;;;;;5027491;28;20048;-85
2021/07/19 05:30:53;;;;;;;6.50;4.65;;;20.10;99.90;;;;;;5017800;28;20048;-85
2021/07/19 05:33:23;;;;;;;7.47;5.10;;;20.20;99.90;;;;;;4999062;28;20058;-85
2021/07/19 05:35:50;;;;;;;6.88;5.20;;;20.20;99.90;;;;;;5011035;28;20048;-85
2021/07/19 05:38:19;;;;;;;5.35;4.82;;;20.20;99.90;;;;;;5031626;28;20387;-85
2021/07/19 05:40:46;;;;;;;8.32;4.90;;;20.30;99.90;;;;;;5019069;28;20042;-85
2021/07/19 05:43:13;;;;;;;8.68;4.65;;;20.40;99.90;;;;;;5022769;28;20473;-85
2021/07/19 05:45:40;;;;;;;7.18;4.82;;;20.40;99.90;;;;;;5011414;28;20064;-85
2021/07/19 05:48:08;;;;;;;6.68;4.93;;;20.50;99.90;;;;;;5024404;28;20060;-85
2021/07/19 05:50:35;;;;;;;7.20;5.00;;;20.60;99.90;;;;;;5009370;28;20439;-84
2021/07/19 05:53:04;;;;;;;7.87;4.60;;;20.70;99.90;;;;;;5013149;28;20056;-85
2021/07/19 05:55:34;;;;;;;5.05;4.20;;;20.80;99.90;;;;;;5029260;28;20046;-85
2021/07/19 05:58:02;;;;;;;6.60;5.00;;;20.90;99.90;;;;;;5030298;28;20048;-85
2021/07/19 06:00:29;;;;;;;5.70;4.68;;;20.90;99.90;;;;;;5013561;28;20039;-85
2021/07/19 06:02:56;;;;;;;5.60;4.40;;;21.00;99.90;;;;;;5030343;28;20045;-85
2021/07/19 06:05:23;;;;;;;5.22;4.45;;;21.10;99.90;;;;;;5011595;28;20052;-85
2021/07/19 06:07:51;;;;;;;7.20;4.82;;;21.20;99.90;;;;;;5011944;28;20399;-87
2021/07/19 06:10:18;;;;;;;5.53;4.57;;;21.30;99.90;;;;;;5011750;28;20111;-88
2021/07/19 06:12:47;;;;;;;4.90;4.38;;;21.40;99.90;;;;;;5023300;28;20054;-87
2021/07/19 06:15:14;;;;;;;8.07;4.65;;;21.50;99.90;;;;;;5012623;28;20049;-85
2021/07/19 06:17:42;;;;;;;5.40;4.80;;;21.50;99.90;;;;;;5012804;28;20376;-86
2021/07/19 06:20:18;;;;;;;5.15;4.68;;;21.60;99.90;;;;;;5008445;28;20060;-85
2021/07/19 06:22:46;;;;;;;9.90;4.82;;;21.70;99.90;;;;;;5012449;28;20119;-85
2021/07/19 06:25:16;;;;;;;9.38;4.78;;;21.90;99.90;;;;;;5011992;28;20045;-85
2021/07/19 06:27:43;;;;;;;5.50;4.38;;;22.00;99.90;;;;;;5012073;28;20475;-85
2021/07/19 06:30:12;;;;;;;6.28;4.40;;;22.00;99.90;;;;;;5030250;28;20052;-85
2021/07/19 06:32:40;;;;;;;8.65;4.72;;;22.10;99.90;;;;;;5011764;28;20048;-85
2021/07/19 06:35:08;;;;;;;8.57;4.93;;;22.20;99.90;;;;;;5028376;28;20041;-85
2021/07/19 06:37:35;;;;;;;6.63;4.80;;;22.30;99.90;;;;;;5017660;28;20044;-85
2021/07/19 06:40:04;;;;;;;11.57;4.72;;;22.50;99.90;;;;;;5011730;28;20053;-85
2021/07/19 06:42:31;;;;;;;5.68;4.70;;;22.60;99.90;;;;;;5011440;28;20083;-86
2021/07/19 06:45:05;;;;;;;5.47;4.35;;;22.70;99.90;;;;;;4997520;28;20081;-85
2021/07/19 06:47:32;;;;;;;6.30;4.50;;;22.80;99.90;;;;;;5034914;28;20047;-85
2021/07/19 06:49:59;;;;;;;7.90;4.75;;;22.90;99.90;;;;;;5019153;28;20395;-85
2021/07/19 06:52:26;;;;;;;6.18;4.80;;;23.00;99.90;;;;;;5012647;28;20048;-86
2021/07/19 06:54:53;;;;;;;5.35;4.22;;;23.10;99.90;;;;;;5012272;28;20095;-85
2021/07/19 06:57:20;;;;;;;7.78;4.38;;;23.30;99.90;;;;;;5009231;28;20049;-85
2021/07/19 06:59:48;;;;;;;11.50;4.70;;;23.40;99.90;;;;;;5031451;28;20044;-85
2021/07/19 07:02:15;;;;;;;4.88;4.40;;;23.50;99.90;;;;;;5016905;28;20080;-85
2021/07/19 07:04:43;;;;;;;7.28;4.03;;;23.60;99.90;;;;;;5010408;28;20068;-85
2021/07/19 07:07:11;;;;;;;6.00;4.50;;;23.80;99.90;;;;;;5020384;28;20044;-85
2021/07/19 07:09:37;;;;;;;5.38;4.07;;;23.90;99.90;;;;;;5009535;28;20404;-85
2021/07/19 07:12:18;;;;;;;6.03;4.43;;;24.10;99.90;;;;;;5022631;28;20388;-85
2021/07/19 07:14:45;;;;;;;6.75;4.47;;;24.20;99.90;;;;;;5008892;28;20076;-85
2021/07/19 07:17:13;;;;;;;7.70;4.63;;;24.30;99.90;;;;;;5023563;28;20050;-85
2021/07/19 07:19:40;;;;;;;5.65;4.50;;;24.50;99.90;;;;;;5007703;28;20050;-85
2021/07/19 07:22:07;;;;;;;5.82;4.22;;;24.60;99.90;;;;;;5003587;28;20045;-85
2021/07/19 07:24:40;;;;;;;5.30;4.20;;;24.80;99.90;;;;;;5008342;28;20430;-85
2021/07/19 07:27:11;;;;;;;6.85;4.20;;;24.90;99.90;;;;;;4999675;28;20371;-85
2021/07/19 07:29:38;;;;;;;4.45;3.80;;;25.00;99.90;;;;;;5007749;28;20466;-85
2021/07/19 07:32:06;;;;;;;10.07;3.90;;;25.10;99.90;;;;;;5006381;28;20047;-85
2021/07/19 07:34:35;;;;;;;3.85;3.50;;;25.30;99.90;;;;;;5011392;28;20107;-85
2021/07/19 07:37:02;;;;;;;6.25;3.90;;;25.40;99.90;;;;;;5008075;28;20049;-85
2021/07/19 07:39:29;;;;;;;4.07;3.63;;;25.50;99.90;;;;;;5012498;28;20041;-85
2021/07/19 07:41:56;;;;;;;8.07;3.45;;;25.50;99.90;;;;;;5023338;28;20041;-85
2021/07/19 07:44:23;;;;;;;8.02;4.20;;;25.60;99.90;;;;;;5012635;28;20064;-85
2021/07/19 07:46:50;;;;;;;4.25;3.72;;;25.70;99.90;;;;;;5016325;28;20475;-85
2021/07/19 07:49:20;;;;;;;5.07;3.60;;;25.80;99.90;;;;;;5006938;28;20103;-85
2021/07/19 07:51:48;;;;;;;4.65;3.60;;;25.90;99.90;;;;;;5026588;28;20051;-85
2021/07/19 07:54:16;;;;;;;4.90;3.63;;;26.00;99.90;;;;;;5006878;28;20046;-85
2021/07/19 07:56:43;;;;;;;5.67;3.87;;;26.10;99.90;;;;;;5013108;28;20045;-85
2021/07/19 07:59:26;;;;;;;4.47;3.50;;;26.20;99.90;;;;;;5012185;28;20444;-85
2021/07/19 08:01:53;;;;;;;4.43;3.80;;;26.30;99.90;;;;;;5013505;28;20052;-85
2021/07/19 08:04:20;;;;;;;4.88;3.38;;;26.50;99.90;;;;;;5023830;28;20061;-85
2021/07/19 08:06:48;;;;;;;5.75;3.72;;;26.60;99.90;;;;;;5021144;28;20056;-85
2021/07/19 08:09:15;;;;;;;4.55;3.67;;;26.70;99.90;;;;;;5027542;28;20049;-85
2021/07/19 08:11:43;;;;;;;5.88;3.60;;;26.90;99.90;;;;;;5027832;28;20045;-86
2021/07/19 08:14:10;;;;;;;6.20;3.53;;;27.00;99.90;;;;;;5024922;28;20042;-85
2021/07/19 08:16:39;;;;;;;5.10;3.17;;;27.10;99.90;;;;;;5039424;28;20077;-86
2021/07/19 08:19:08;;;;;;;4.35;3.60;;;27.20;99.90;;;;;;5020807;28;20045;-85
2021/07/19 08:21:39;;;;;;;5.68;3.70;;;27.30;99.90;;;;;;5021909;28;20055;-85
2021/07/19 08:24:06;;;;;;;;;;;27.40;99.90;;;;;;5033517;28;20099;-86
2021/07/19 08:26:34;;;;;;;5.50;3.75;;;27.50;99.90;;;;;;5021119;28;20381;-85
2021/07/19 08:29:02;;;;;;;5.97;3.67;;;27.60;99.90;;;;;;5014092;28;20107;-85
2021/07/19 08:31:30;;;;;;;;;;;27.70;99.90;;;;;;5041362;28;20041;-85
2021/07/19 08:33:57;;;;;;;4.50;3.85;;;27.80;99.90;;;;;;5023374;28;20013;-85
2021/07/19 08:36:24;;;;;;;7.60;3.75;;;27.90;99.90;;;;;;5017276;28;20049;-85
2021/07/19 08:38:52;;;;;;;4.22;3.13;;;28.00;99.90;;;;;;5018345;28;20049;-86
2021/07/19 08:41:19;;;;;;;5.55;3.50;;;28.20;99.90;;;;;;5026407;28;20045;-85
2021/07/19 08:43:47;;;;;;;3.72;3.38;;;28.30;99.90;;;;;;5016580;28;20083;-85
2021/07/19 08:46:14;;;;;;;6.45;3.42;;;28.40;99.90;;;;;;5022471;28;21487;-86
2021/07/19 08:48:52;;;;;;;4.38;3.47;;;28.50;99.90;;;;;;5021753;28;20053;-85
2021/07/19 08:51:19;;;;;;;5.32;3.20;;;28.60;99.90;;;;;;5014811;28;20049;-85
2021/07/19 08:53:47;;;;;;;4.07;3.45;;;28.60;99.90;;;;;;5011894;28;20052;-85
2021/07/19 08:56:14;;;;;;;7.13;3.47;;;28.70;99.90;;;;;;5007813;28;20068;-86
2021/07/19 08:58:43;;;;;;;7.03;3.53;;;28.80;99.90;;;;;;5028719;28;20096;-86
2021/07/19 09:01:12;;;;;;;5.57;3.63;;;28.90;99.90;;;;;;5010333;28;20394;-85
2021/07/19 09:03:40;;;;;;;4.80;3.33;;;29.00;99.90;;;;;;5019641;28;20065;-85
2021/07/19 09:06:11;;;;;;;7.77;3.87;;;29.10;99.90;;;;;;5020585;28;20088;-86
2021/07/19 09:08:53;;;;;;;5.57;3.35;;;29.20;99.90;;;;;;5019151;28;20049;-86
2021/07/19 09:11:22;;;;;;;5.95;3.35;;;29.20;99.00;;;;;;5025242;28;20068;-85
2021/07/19 09:14:06;;;;;;;4.95;2.95;;;29.30;99.30;;;;;;5024960;28;20048;-85
2021/07/19 09:16:41;;;;;;;6.40;3.22;;;29.30;99.00;;;;;;5030358;28;20061;-85
2021/07/19 09:19:28;;;;;;;5.20;3.17;;;29.30;99.00;;;;;;5024742;28;20057;-86
2021/07/19 09:22:00;;;;;;;5.55;3.75;;;29.40;98.90;;;;;;5007837;28;20380;-85
2021/07/19 09:24:32;;;;;;;6.68;3.92;;;29.40;99.00;;;;;;5010321;28;20061;-86
2021/07/19 09:27:00;;;;;;;4.35;3.25;;;29.40;98.90;;;;;;5014264;28;20052;-85
2021/07/19 09:29:28;;;;;;;3.47;3.17;;;29.40;98.60;;;;;;5025751;28;20518;-86
2021/07/19 09:32:00;;;;;;;3.75;3.25;;;29.20;98.30;;;;;;5012046;28;20783;-85
2021/07/19 09:34:34;;;;;;;5.30;3.70;;;29.20;98.30;;;;;;5013101;28;20435;-85
2021/07/19 09:37:07;;;;;;;4.82;3.25;;;29.00;98.30;;;;;;5025552;28;20049;-85
2021/07/19 09:39:43;;;;;;;4.95;3.30;;;29.00;98.30;;;;;;5007669;28;20049;-85
2021/07/19 09:42:24;;;;;;;6.70;3.70;;;29.00;98.40;;;;;;5028999;28;20050;-86
2021/07/19 09:44:57;;;;;;;5.82;3.53;;;29.10;98.50;;;;;;5011675;28;20042;-85
2021/07/19 09:47:40;;;;;;;4.60;3.35;;;29.30;98.10;;;;;;5009014;28;21091;-85
2021/07/19 09:50:15;;;;;;;4.45;3.30;;;29.40;97.60;;;;;;5024376;28;20049;-86
2021/07/19 09:52:44;;;;;;;5.85;3.90;;;29.40;97.50;;;;;;5023440;28;20045;-85
2021/07/19 09:55:21;;;;;;;;;;;29.40;97.70;;;;;;5019063;28;20053;-86
2021/07/19 09:58:00;;;;;;;5.50;2.92;;;29.30;97.20;;;;;;5008435;28;20395;-86
2021/07/19 10:00:29;;;;;;;5.90;3.10;;;29.30;97.60;;;;;;5010856;28;20391;-85
2021/07/19 10:02:56;;;;;;;5.05;2.92;;;29.40;97.60;;;;;;5027614;28;20052;-86
2021/07/19 10:05:28;;;;;;;3.17;2.88;;;29.60;97.60;;;;;;5009184;28;20148;-85
2021/07/19 10:07:56;;;;;;;7.35;3.75;;;29.70;97.20;;;;;;5026969;28;20074;-85
2021/07/19 10:10:40;;;;;;;3.55;3.20;;;29.80;97.00;;;;;;5008251;28;20478;-84
2021/07/19 10:13:09;;;;;;;5.60;3.40;;;29.90;96.60;;;;;;5011011;28;20037;-85
2021/07/19 10:15:38;;;;;;;8.02;3.65;;;29.80;96.60;;;;;;5022663;28;20041;-86
2021/07/19 10:18:09;;;;;;;5.43;3.53;;;29.80;96.50;;;;;;5028135;28;20046;-86
2021/07/19 10:20:38;;;;;;;6.03;3.40;;;29.70;96.20;;;;;;5010496;28;20041;-86
2021/07/19 10:23:06;;;;;;;6.00;3.10;;;29.60;96.20;;;;;;5026109;28;20041;-86
2021/07/19 10:25:37;;;;;;;6.47;3.40;;;29.60;96.40;;;;;;5009351;28;20513;-85
2021/07/19 10:28:05;;;;;;;5.00;3.05;;;29.60;96.50;;;;;;5014260;28;20399;-85
2021/07/19 10:30:33;;;;;;;7.07;3.08;;;29.70;96.30;;;;;;5005362;28;20504;-85
2021/07/19 10:33:02;;;;;;;10.75;3.42;;;29.80;95.90;;;;;;5025761;28;20068;-85
2021/07/19 10:35:30;;;;;;;8.68;3.30;;;29.90;95.30;;;;;;5009825;28;20041;-86
2021/07/19 10:38:17;;;;;;;6.28;3.33;;;29.90;94.80;;;;;;5008226;28;20056;-85
2021/07/19 10:40:45;;;;;;;5.47;3.13;;;29.90;93.80;;;;;;5013646;28;20120;-85
2021/07/19 10:43:17;;;;;;;6.25;3.45;;;29.90;94.30;;;;;;5027335;28;20049;-86
2021/07/19 10:45:53;;;;;;;11.25;3.80;;;29.90;94.30;;;;;;5013589;28;20514;-85
2021/07/19 10:48:28;;;;;;;7.30;3.20;;;29.90;94.50;;;;;;5006303;28;20045;-85
2021/07/19 10:50:59;;;;;;;6.55;3.30;;;30.00;94.20;;;;;;5005434;28;20049;-85
2021/07/19 10:53:33;;;;;;;5.78;2.97;;;30.10;94.20;;;;;;4999638;28;20058;-85
2021/07/19 10:56:09;;;;;;;6.85;2.95;;;30.10;94.20;;;;;;5005094;28;20049;-86
2021/07/19 10:58:42;;;;;;;9.10;3.25;;;30.20;93.90;;;;;;5007420;28;20069;-86
2021/07/19 11:01:26;;;;;;;4.82;2.78;;;30.20;93.60;;;;;;5023199;28;20181;-86
2021/07/19 11:03:55;;;;;;;5.20;2.95;;;30.30;92.10;;;;;;5027755;28;20057;-85
2021/07/19 11:06:31;;;;;;;5.60;3.13;;;30.30;93.00;;;;;;5019754;28;20128;-85
2021/07/19 11:08:59;;;;;;;6.75;3.28;;;30.40;92.70;;;;;;5025780;28;20495;-85
2021/07/19 11:11:31;;;;;;;6.20;3.10;;;30.40;92.60;;;;;;5023497;28;20052;-85
2021/07/19 11:14:04;;;;;;;5.05;2.80;;;30.40;92.20;;;;;;5007224;28;20054;-86
2021/07/19 11:16:52;;;;;;;8.30;3.08;;;30.40;92.10;;;;;;5010367;28;20053;-85
2021/07/19 11:19:30;;;;;;;8.10;3.42;;;30.40;91.30;;;;;;5011114;28;20053;-86
2021/07/19 11:22:23;;;;;;;;;;;30.40;91.70;;;;;;5008553;28;20064;-85
2021/07/19 11:24:56;;;;;;;6.35;3.00;;;30.40;91.90;;;;;;5017676;28;20883;-85
2021/07/19 11:27:40;;;;;;;9.50;3.30;;;30.50;92.10;;;;;;5005772;28;20441;-85
2021/07/19 11:30:09;;;;;;;5.97;2.60;;;30.50;92.00;;;;;;5007449;28;20501;-86
2021/07/19 11:32:38;;;;;;;6.03;2.83;;;30.60;92.00;;;;;;5008493;28;20041;-85
2021/07/19 11:35:12;;;;;;;6.07;2.78;;;30.70;92.60;;;;;;5005085;28;20053;-86
2021/07/19 11:37:48;;;;;;;3.83;2.60;;;30.80;92.50;;;;;;5029274;28;20045;-85
2021/07/19 11:40:38;;;;;;;5.40;3.05;;;30.80;91.80;;;;;;5005003;28;20048;-86
2021/07/19 11:43:09;;;;;;;5.45;3.13;;;30.90;91.50;;;;;;4991729;28;20573;-86
2021/07/19 11:45:41;;;;;;;6.32;2.97;;;30.90;91.80;;;;;;5021842;28;20053;-85
2021/07/19 11:48:08;;;;;;;4.88;2.65;;;30.90;91.80;;;;;;5006137;28;20045;-85
2021/07/19 11:50:35;;;;;;;3.43;2.70;;;30.90;91.60;;;;;;5005755;28;20046;-85
2021/07/19 11:53:02;;;;;;;4.72;3.10;;;30.80;91.00;;;;;;5010272;28;20049;-86
2021/07/19 11:55:29;;;;;;;5.88;3.10;;;30.80;91.30;;;;;;5005352;28;20415;-85
2021/07/19 11:58:00;;;;;;;5.00;3.17;;;30.80;91.40;;;;;;5004075;28;20056;-85
2021/07/19 12:00:30;;;;;;;4.85;2.63;;;30.80;90.80;;;;;;5007953;28;20513;-85
2021/07/19 12:03:06;;;;;;;8.07;3.03;;;30.80;91.00;;;;;;5013871;28;20132;-85
2021/07/19 12:05:50;;;;;;;5.10;2.53;;;30.80;91.20;;;;;;5011827;28;20065;-85
2021/07/19 12:08:23;;;;;;;4.28;2.78;;;30.90;91.10;;;;;;5004229;28;20058;-85
2021/07/19 12:10:53;;;;;;;6.25;3.20;;;30.90;90.50;;;;;;5023717;28;20049;-85
2021/07/19 12:13:21;;;;;;;5.85;3.00;;;30.90;90.00;;;;;;5007525;28;20479;-85
2021/07/19 12:15:53;;;;;;;6.97;2.85;;;30.70;89.20;;;;;;5003964;28;20054;-85
2021/07/19 12:18:44;;;;;;;4.70;2.92;;;30.70;90.10;;;;;;5004758;28;20060;-85
2021/07/19 12:21:19;;;;;;;7.70;2.92;;;30.80;89.90;;;;;;5008047;28;20049;-86
2021/07/19 12:23:52;;;;;;;5.88;3.03;;;30.90;90.30;;;;;;5028495;28;20049;-85
2021/07/19 12:26:32;;;;;;;5.18;3.25;;;30.90;90.30;;;;;;5006956;28;20073;-85
2021/07/19 12:29:00;;;;;;;4.95;2.70;;;31.00;90.10;;;;;;5028759;28;20413;-85
2021/07/19 12:31:40;;;;;;;5.65;2.72;;;31.00;89.10;;;;;;5004682;28;20040;-85
2021/07/19 12:34:09;;;;;;;6.25;3.00;;;31.10;88.40;;;;;;5004873;28;20052;-85
2021/07/19 12:36:38;;;;;;;8.82;2.90;;;31.00;89.20;;;;;;5026231;28;20053;-85
2021/07/19 12:39:11;;;;;;;5.72;3.00;;;31.00;89.20;;;;;;5022893;28;20403;-86
2021/07/19 12:41:39;;;;;;;6.65;3.03;;;31.00;89.10;;;;;;5028954;28;20052;-86
2021/07/19 12:44:08;;;;;;;6.28;3.05;;;31.10;89.00;;;;;;5024927;28;20045;-86
2021/07/19 12:46:40;;;;;;;3.70;3.00;;;31.00;88.90;;;;;;5026023;28;20049;-86
2021/07/19 12:49:08;;;;;;;4.30;2.80;;;31.10;88.50;;;;;;5007235;28;20042;-86
2021/07/19 12:51:36;;;;;;;4.45;3.00;;;31.10;90.00;;;;;;5006642;28;20056;-84
2021/07/19 12:54:09;;;;;;;5.95;2.90;;;31.20;89.60;;;;;;5022936;28;20476;-85
2021/07/19 12:56:40;;;;;;;9.73;3.08;;;31.20;89.20;;;;;;5009095;28;20099;-85
2021/07/19 12:59:10;;;;;;;5.00;3.03;;;31.20;88.50;;;;;;5006002;28;20046;-85
2021/07/19 13:01:40;;;;;;;5.45;3.00;;;31.20;88.80;;;;;;5022645;28;20076;-85
2021/07/19 13:04:10;;;;;;;6.10;2.97;;;31.30;89.20;;;;;;5009827;28;20050;-85
2021/07/19 13:06:39;;;;;;;5.93;2.80;;;31.30;88.80;;;;;;5020567;28;20052;-85
2021/07/19 13:09:19;;;;;;;5.75;2.97;;;31.40;88.90;;;;;;5024033;28;20057;-85